Needham Heights, Massachusetts
Current Conditions -  °F | °C
As of 9:39 PM on Saturday 20 Dec 2014 (Local Time) from KOWD Reporting Station
Light Snow Light Snow  
Wind Chill: 33°   Ceiling: 1500
Heat Index: 33°   Visibility: 1.7mi
Dew Point: 31°   Wind: 3mph
Humidity: 92%   Direction: NA
Pressure: 30.29"   Gusts: NA
Location:  42.2971°N, 71.227°W
Report Text: KOWD 210239Z AUTO VRB03KT 1 3/4SM -SN BR SCT008 OVC015 01/M01 A3029 RMK AO2 P0000 T00061006
Loading
Personal Weather Stations






























Interactive Weather Map New forecast layout! Learn more

10-Day Weather Forecast

Advertisements
Track Severe Weather on mobile